sensor_id;sensor_type;location;lat;lon;timestamp;pressure;altitude;pressure_sealevel;temperature;humidity
61528;BME280;47395;42.032;-8.634;2023-04-01T00:00:55;101892.16;;;14.84;82.20
61528;BME280;47395;42.032;-8.634;2023-04-01T00:02:57;101892.91;;;14.86;82.21
61528;BME280;47395;42.032;-8.634;2023-04-01T00:04:58;101891.06;;;14.88;81.93
61528;BME280;47395;42.032;-8.634;2023-04-01T00:06:59;101885.69;;;14.90;81.99
61528;BME280;47395;42.032;-8.634;2023-04-01T00:09:00;101885.69;;;14.90;82.14
61528;BME280;47395;42.032;-8.634;2023-04-01T00:11:01;101891.63;;;14.95;81.81
61528;BME280;47395;42.032;-8.634;2023-04-01T00:13:02;101893.34;;;14.96;81.35
61528;BME280;47395;42.032;-8.634;2023-04-01T00:15:05;101892.63;;;14.92;81.51
61528;BME280;47395;42.032;-8.634;2023-04-01T00:17:07;101893.47;;;14.93;81.37
61528;BME280;47395;42.032;-8.634;2023-04-01T00:19:08;101893.34;;;14.96;81.58
61528;BME280;47395;42.032;-8.634;2023-04-01T00:21:09;101886.06;;;14.99;81.72
61528;BME280;47395;42.032;-8.634;2023-04-01T00:23:10;101894.78;;;15.03;81.73
61528;BME280;47395;42.032;-8.634;2023-04-01T00:25:11;101886.00;;;15.01;81.65
61528;BME280;47395;42.032;-8.634;2023-04-01T00:27:12;101882.50;;;15.00;80.90
61528;BME280;47395;42.032;-8.634;2023-04-01T00:29:12;101876.13;;;15.05;81.40
61528;BME280;47395;42.032;-8.634;2023-04-01T00:31:14;101871.66;;;15.05;81.68
61528;BME280;47395;42.032;-8.634;2023-04-01T00:33:15;101872.59;;;15.04;81.90
61528;BME280;47395;42.032;-8.634;2023-04-01T00:35:17;101868.31;;;15.01;82.02
61528;BME280;47395;42.032;-8.634;2023-04-01T00:37:18;101866.72;;;14.97;82.49
61528;BME280;47395;42.032;-8.634;2023-04-01T00:39:20;101866.09;;;14.92;82.79
61528;BME280;47395;42.032;-8.634;2023-04-01T00:41:21;101868.50;;;14.97;82.82
61528;BME280;47395;42.032;-8.634;2023-04-01T00:43:22;101872.91;;;14.98;82.74
61528;BME280;47395;42.032;-8.634;2023-04-01T00:45:42;101879.06;;;14.98;82.95
61528;BME280;47395;42.032;-8.634;2023-04-01T00:47:43;101870.09;;;15.01;82.83
61528;BME280;47395;42.032;-8.634;2023-04-01T00:49:46;101868.38;;;15.00;82.76
61528;BME280;47395;42.032;-8.634;2023-04-01T00:51:51;101859.53;;;14.99;82.81
61528;BME280;47395;42.032;-8.634;2023-04-01T00:53:56;101832.09;;;15.00;82.62
61528;BME280;47395;42.032;-8.634;2023-04-01T00:56:03;101835.66;;;14.99;82.39
61528;BME280;47395;42.032;-8.634;2023-04-01T00:58:07;101839.44;;;14.95;82.31
61528;BME280;47395;42.032;-8.634;2023-04-01T01:00:12;101857.91;;;14.97;82.09
61528;BME280;47395;42.032;-8.634;2023-04-01T01:02:16;101851.75;;;14.96;81.87
61528;BME280;47395;42.032;-8.634;2023-04-01T01:04:28;101858.84;;;14.96;81.51
61528;BME280;47395;42.032;-8.634;2023-04-01T01:09:37;101862.13;;;15.01;81.73
61528;BME280;47395;42.032;-8.634;2023-04-01T01:11:43;101860.34;;;15.01;81.70
61528;BME280;47395;42.032;-8.634;2023-04-01T01:14:06;101862.28;;;14.98;81.55
61528;BME280;47395;42.032;-8.634;2023-04-01T01:16:22;101849.72;;;15.01;81.32
61528;BME280;47395;42.032;-8.634;2023-04-01T01:27:00;101852.84;;;15.10;81.00
61528;BME280;47395;42.032;-8.634;2023-04-01T01:31:44;101852.47;;;15.18;80.76
61528;BME280;47395;42.032;-8.634;2023-04-01T01:36:17;101852.31;;;15.21;80.71
61528;BME280;47395;42.032;-8.634;2023-04-01T01:38:24;101847.97;;;15.20;80.41
61528;BME280;47395;42.032;-8.634;2023-04-01T01:40:34;101848.88;;;15.19;80.54
61528;BME280;47395;42.032;-8.634;2023-04-01T01:42:40;101842.88;;;15.15;80.45
61528;BME280;47395;42.032;-8.634;2023-04-01T01:44:46;101844.56;;;15.16;80.32
61528;BME280;47395;42.032;-8.634;2023-04-01T01:46:48;101840.97;;;15.17;80.19
61528;BME280;47395;42.032;-8.634;2023-04-01T01:48:51;101838.44;;;15.16;80.17
61528;BME280;47395;42.032;-8.634;2023-04-01T01:50:53;101841.16;;;15.14;80.21
61528;BME280;47395;42.032;-8.634;2023-04-01T01:53:05;101837.69;;;15.12;80.27
61528;BME280;47395;42.032;-8.634;2023-04-01T01:55:31;101834.44;;;15.07;80.44
61528;BME280;47395;42.032;-8.634;2023-04-01T01:57:34;101834.75;;;15.00;80.68
61528;BME280;47395;42.032;-8.634;2023-04-01T01:59:40;101836.38;;;15.03;80.67
61528;BME280;47395;42.032;-8.634;2023-04-01T02:01:50;101835.09;;;14.93;80.78
61528;BME280;47395;42.032;-8.634;2023-04-01T02:03:52;101828.34;;;14.87;80.79
61528;BME280;47395;42.032;-8.634;2023-04-01T02:05:57;101839.84;;;14.86;81.05
61528;BME280;47395;42.032;-8.634;2023-04-01T02:08:12;101833.16;;;14.79;80.95
61528;BME280;47395;42.032;-8.634;2023-04-01T02:10:15;101828.09;;;14.72;80.64
61528;BME280;47395;42.032;-8.634;2023-04-01T02:12:16;101833.41;;;14.72;80.90
61528;BME280;47395;42.032;-8.634;2023-04-01T02:14:26;101826.38;;;14.71;81.19
61528;BME280;47395;42.032;-8.634;2023-04-01T02:16:33;101825.44;;;14.72;81.21
61528;BME280;47395;42.032;-8.634;2023-04-01T02:18:36;101828.91;;;14.74;81.43
61528;BME280;47395;42.032;-8.634;2023-04-01T02:20:40;101822.72;;;14.74;81.85
61528;BME280;47395;42.032;-8.634;2023-04-01T02:22:46;101822.72;;;14.74;81.75
61528;BME280;47395;42.032;-8.634;2023-04-01T02:24:50;101818.88;;;14.62;81.96
61528;BME280;47395;42.032;-8.634;2023-04-01T02:26:52;101827.16;;;14.56;82.52
61528;BME280;47395;42.032;-8.634;2023-04-01T02:28:54;101824.00;;;14.47;83.28
61528;BME280;47395;42.032;-8.634;2023-04-01T02:30:57;101829.44;;;14.44;83.33
61528;BME280;47395;42.032;-8.634;2023-04-01T02:33:01;101828.66;;;14.42;83.35
61528;BME280;47395;42.032;-8.634;2023-04-01T02:35:09;101827.00;;;14.40;83.75
61528;BME280;47395;42.032;-8.634;2023-04-01T02:37:12;101812.81;;;14.41;83.55
61528;BME280;47395;42.032;-8.634;2023-04-01T02:39:13;101828.72;;;14.41;83.51
61528;BME280;47395;42.032;-8.634;2023-04-01T02:41:14;101833.16;;;14.40;83.65
61528;BME280;47395;42.032;-8.634;2023-04-01T02:43:15;101832.38;;;14.38;83.76
61528;BME280;47395;42.032;-8.634;2023-04-01T02:45:17;101824.56;;;14.35;83.80
61528;BME280;47395;42.032;-8.634;2023-04-01T02:47:17;101838.75;;;14.34;84.50
61528;BME280;47395;42.032;-8.634;2023-04-01T02:49:18;101838.84;;;14.32;84.40
61528;BME280;47395;42.032;-8.634;2023-04-01T02:51:19;101837.03;;;14.33;84.65
61528;BME280;47395;42.032;-8.634;2023-04-01T02:53:20;101844.34;;;14.28;84.88
61528;BME280;47395;42.032;-8.634;2023-04-01T02:55:21;101840.97;;;14.24;85.08
61528;BME280;47395;42.032;-8.634;2023-04-01T02:57:23;101852.22;;;14.29;85.31
61528;BME280;47395;42.032;-8.634;2023-04-01T02:59:24;101843.63;;;14.24;85.73
61528;BME280;47395;42.032;-8.634;2023-04-01T03:01:24;101844.19;;;14.31;85.45
61528;BME280;47395;42.032;-8.634;2023-04-01T03:03:25;101845.06;;;14.31;85.78
61528;BME280;47395;42.032;-8.634;2023-04-01T03:05:26;101838.59;;;14.37;85.27
61528;BME280;47395;42.032;-8.634;2023-04-01T03:07:27;101836.88;;;14.36;85.34
61528;BME280;47395;42.032;-8.634;2023-04-01T03:09:28;101830.06;;;14.30;85.27
61528;BME280;47395;42.032;-8.634;2023-04-01T03:11:29;101830.06;;;14.30;85.53
61528;BME280;47395;42.032;-8.634;2023-04-01T03:13:30;101837.25;;;14.28;85.69
61528;BME280;47395;42.032;-8.634;2023-04-01T03:15:31;101835.69;;;14.24;85.78
61528;BME280;47395;42.032;-8.634;2023-04-01T03:17:32;101834.75;;;14.25;86.39
61528;BME280;47395;42.032;-8.634;2023-04-01T03:19:33;101827.03;;;14.20;86.46
61528;BME280;47395;42.032;-8.634;2023-04-01T03:21:39;101827.34;;;14.13;86.89
61528;BME280;47395;42.032;-8.634;2023-04-01T03:23:39;101834.47;;;14.12;86.97
61528;BME280;47395;42.032;-8.634;2023-04-01T03:25:40;101833.00;;;14.05;87.13
61528;BME280;47395;42.032;-8.634;2023-04-01T03:27:41;101833.00;;;14.05;87.50
61528;BME280;47395;42.032;-8.634;2023-04-01T03:29:43;101835.66;;;14.05;87.34
61528;BME280;47395;42.032;-8.634;2023-04-01T03:31:44;101835.59;;;14.06;87.65
61528;BME280;47395;42.032;-8.634;2023-04-01T03:33:45;101834.00;;;14.02;88.06
61528;BME280;47395;42.032;-8.634;2023-04-01T03:35:46;101827.38;;;13.93;88.13
61528;BME280;47395;42.032;-8.634;2023-04-01T03:37:47;101837.03;;;13.94;88.46
61528;BME280;47395;42.032;-8.634;2023-04-01T03:39:48;101826.28;;;13.98;88.27
61528;BME280;47395;42.032;-8.634;2023-04-01T03:41:48;101814.81;;;13.97;88.43
61528;BME280;47395;42.032;-8.634;2023-04-01T03:43:50;101812.13;;;13.99;88.50
61528;BME280;47395;42.032;-8.634;2023-04-01T03:45:51;101812.88;;;14.01;88.71
61528;BME280;47395;42.032;-8.634;2023-04-01T03:47:52;101803.09;;;14.03;88.53
61528;BME280;47395;42.032;-8.634;2023-04-01T03:49:53;101795.41;;;13.96;88.88
61528;BME280;47395;42.032;-8.634;2023-04-01T03:51:54;101799.94;;;13.94;88.90
61528;BME280;47395;42.032;-8.634;2023-04-01T03:53:56;101805.38;;;13.91;89.22
61528;BME280;47395;42.032;-8.634;2023-04-01T03:55:57;101801.94;;;13.89;89.16
61528;BME280;47395;42.032;-8.634;2023-04-01T03:57:59;101798.53;;;13.86;89.73
61528;BME280;47395;42.032;-8.634;2023-04-01T04:00:02;101793.41;;;13.82;90.01
61528;BME280;47395;42.032;-8.634;2023-04-01T04:04:29;101793.03;;;13.71;89.31
61528;BME280;47395;42.032;-8.634;2023-04-01T04:06:32;101796.88;;;13.64;89.59
61528;BME280;47395;42.032;-8.634;2023-04-01T04:08:34;101793.31;;;13.65;89.46
61528;BME280;47395;42.032;-8.634;2023-04-01T04:10:35;101792.50;;;13.63;89.67
61528;BME280;47395;42.032;-8.634;2023-04-01T04:12:36;101788.09;;;13.63;89.67
61528;BME280;47395;42.032;-8.634;2023-04-01T04:14:37;101793.09;;;13.69;90.08
61528;BME280;47395;42.032;-8.634;2023-04-01T04:16:38;101787.84;;;13.68;89.89
61528;BME280;47395;42.032;-8.634;2023-04-01T04:18:42;101796.44;;;13.73;89.84
61528;BME280;47395;42.032;-8.634;2023-04-01T04:20:45;101805.13;;;13.77;89.60
61528;BME280;47395;42.032;-8.634;2023-04-01T04:23:09;101803.31;;;13.77;89.25
61528;BME280;47395;42.032;-8.634;2023-04-01T04:25:10;101805.00;;;13.80;88.70
61528;BME280;47395;42.032;-8.634;2023-04-01T04:27:12;101808.44;;;13.82;88.35
61528;BME280;47395;42.032;-8.634;2023-04-01T04:29:22;101818.09;;;13.83;88.19
61528;BME280;47395;42.032;-8.634;2023-04-01T04:31:24;101810.09;;;13.84;88.06
61528;BME280;47395;42.032;-8.634;2023-04-01T04:33:30;101806.44;;;13.87;87.97
61528;BME280;47395;42.032;-8.634;2023-04-01T04:35:30;101818.38;;;13.77;88.01
61528;BME280;47395;42.032;-8.634;2023-04-01T04:37:32;101818.84;;;13.87;88.34
61528;BME280;47395;42.032;-8.634;2023-04-01T04:39:34;101827.63;;;13.87;88.33
61528;BME280;47395;42.032;-8.634;2023-04-01T04:41:37;101817.03;;;13.87;88.47
61528;BME280;47395;42.032;-8.634;2023-04-01T04:43:41;101820.31;;;13.92;88.32
61528;BME280;47395;42.032;-8.634;2023-04-01T04:45:42;101818.41;;;13.96;88.41
61528;BME280;47395;42.032;-8.634;2023-04-01T04:47:44;101809.66;;;13.94;88.34
61528;BME280;47395;42.032;-8.634;2023-04-01T04:49:46;101813.03;;;13.98;87.67
61528;BME280;47395;42.032;-8.634;2023-04-01T04:51:49;101816.09;;;13.88;88.03
61528;BME280;47395;42.032;-8.634;2023-04-01T04:53:52;101812.72;;;13.84;88.33
61528;BME280;47395;42.032;-8.634;2023-04-01T04:55:57;101814.91;;;13.75;88.27
61528;BME280;47395;42.032;-8.634;2023-04-01T04:58:18;101813.09;;;13.77;88.53
61528;BME280;47395;42.032;-8.634;2023-04-01T05:00:20;101810.56;;;13.74;88.71
61528;BME280;47395;42.032;-8.634;2023-04-01T05:02:29;101802.91;;;13.67;88.60
61528;BME280;47395;42.032;-8.634;2023-04-01T05:04:34;101812.75;;;13.64;88.56
61528;BME280;47395;42.032;-8.634;2023-04-01T05:06:36;101811.16;;;13.60;88.94
61528;BME280;47395;42.032;-8.634;2023-04-01T05:08:37;101810.19;;;13.62;88.90
61528;BME280;47395;42.032;-8.634;2023-04-01T05:10:41;101817.28;;;13.62;89.07
61528;BME280;47395;42.032;-8.634;2023-04-01T05:12:42;101813.91;;;13.58;89.05
61528;BME280;47395;42.032;-8.634;2023-04-01T05:14:48;101807.81;;;13.56;88.67
61528;BME280;47395;42.032;-8.634;2023-04-01T05:16:49;101805.28;;;13.53;88.94
61528;BME280;47395;42.032;-8.634;2023-04-01T05:18:51;101807.16;;;13.51;88.70
61528;BME280;47395;42.032;-8.634;2023-04-01T05:20:53;101812.31;;;13.54;88.41
61528;BME280;47395;42.032;-8.634;2023-04-01T05:22:58;101818.47;;;13.54;88.22
61528;BME280;47395;42.032;-8.634;2023-04-01T05:25:03;101812.09;;;13.58;88.28
61528;BME280;47395;42.032;-8.634;2023-04-01T05:27:04;101814.75;;;13.58;88.13
61528;BME280;47395;42.032;-8.634;2023-04-01T05:29:05;101814.81;;;13.57;88.05
61528;BME280;47395;42.032;-8.634;2023-04-01T05:31:07;101805.03;;;13.59;87.97
61528;BME280;47395;42.032;-8.634;2023-04-01T05:33:13;101798.03;;;13.58;87.59
61528;BME280;47395;42.032;-8.634;2023-04-01T05:35:14;101793.78;;;13.54;87.11
61528;BME280;47395;42.032;-8.634;2023-04-01T05:37:15;101802.38;;;13.59;87.47
61528;BME280;47395;42.032;-8.634;2023-04-01T05:39:16;101791.78;;;13.59;87.20
61528;BME280;47395;42.032;-8.634;2023-04-01T05:41:17;101806.69;;;13.62;86.99
61528;BME280;47395;42.032;-8.634;2023-04-01T05:43:20;101800.72;;;13.56;86.82
61528;BME280;47395;42.032;-8.634;2023-04-01T05:45:23;101807.94;;;13.53;86.97
61528;BME280;47395;42.032;-8.634;2023-04-01T05:47:43;101819.44;;;13.52;86.83
61528;BME280;47395;42.032;-8.634;2023-04-01T05:49:44;101818.47;;;13.54;86.86
61528;BME280;47395;42.032;-8.634;2023-04-01T05:51:46;101815.97;;;13.51;86.71
61528;BME280;47395;42.032;-8.634;2023-04-01T05:53:48;101816.63;;;13.56;86.94
61528;BME280;47395;42.032;-8.634;2023-04-01T05:55:49;101813.03;;;13.57;86.88
61528;BME280;47395;42.032;-8.634;2023-04-01T05:57:50;101825.34;;;13.58;86.91
61528;BME280;47395;42.032;-8.634;2023-04-01T05:59:51;101823.63;;;13.57;86.60
61528;BME280;47395;42.032;-8.634;2023-04-01T06:01:52;101829.56;;;13.63;86.47
61528;BME280;47395;42.032;-8.634;2023-04-01T06:03:54;101819.78;;;13.65;86.68
61528;BME280;47395;42.032;-8.634;2023-04-01T06:05:55;101821.44;;;13.67;86.62
61528;BME280;47395;42.032;-8.634;2023-04-01T06:08:02;101831.03;;;13.70;86.61
61528;BME280;47395;42.032;-8.634;2023-04-01T06:10:12;101825.69;;;13.72;86.64
61528;BME280;47395;42.032;-8.634;2023-04-01T06:12:34;101817.84;;;13.68;86.97
61528;BME280;47395;42.032;-8.634;2023-04-01T06:15:17;101821.28;;;13.70;86.53
61528;BME280;47395;42.032;-8.634;2023-04-01T06:19:47;101813.28;;;13.72;86.65
61528;BME280;47395;42.032;-8.634;2023-04-01T06:22:34;101822.22;;;13.69;86.65
61528;BME280;47395;42.032;-8.634;2023-04-01T06:25:14;101837.28;;;13.69;86.45
61528;BME280;47395;42.032;-8.634;2023-04-01T06:30:31;101832.69;;;13.73;85.95
61528;BME280;47395;42.032;-8.634;2023-04-01T06:32:40;101830.81;;;13.75;86.16
61528;BME280;47395;42.032;-8.634;2023-04-01T06:35:28;101822.34;;;13.66;87.24
61528;BME280;47395;42.032;-8.634;2023-04-01T06:38:12;101821.28;;;13.70;87.01
61528;BME280;47395;42.032;-8.634;2023-04-01T06:43:37;101818.91;;;13.64;87.38
61528;BME280;47395;42.032;-8.634;2023-04-01T06:55:28;101828.81;;;13.61;89.26
61528;BME280;47395;42.032;-8.634;2023-04-01T06:57:57;101834.34;;;13.75;88.93
61528;BME280;47395;42.032;-8.634;2023-04-01T07:00:03;101832.34;;;13.80;88.50
61528;BME280;47395;42.032;-8.634;2023-04-01T07:02:29;101835.50;;;13.89;88.43
61528;BME280;47395;42.032;-8.634;2023-04-01T07:04:42;101834.28;;;13.77;88.55
61528;BME280;47395;42.032;-8.634;2023-04-01T07:09:24;101843.88;;;13.79;88.45
61528;BME280;47395;42.032;-8.634;2023-04-01T07:11:48;101843.28;;;13.73;88.55
61528;BME280;47395;42.032;-8.634;2023-04-01T07:14:31;101840.94;;;13.86;87.54
61528;BME280;47395;42.032;-8.634;2023-04-01T07:16:47;101840.75;;;13.90;87.49
61528;BME280;47395;42.032;-8.634;2023-04-01T07:18:54;101833.44;;;13.95;87.15
61528;BME280;47395;42.032;-8.634;2023-04-01T07:21:04;101831.00;;;14.10;87.13
61528;BME280;47395;42.032;-8.634;2023-04-01T07:23:29;101833.97;;;14.23;86.06
61528;BME280;47395;42.032;-8.634;2023-04-01T07:25:59;101834.09;;;14.39;84.93
61528;BME280;47395;42.032;-8.634;2023-04-01T07:28:23;101831.16;;;14.45;83.94
61528;BME280;47395;42.032;-8.634;2023-04-01T07:33:07;101842.50;;;14.49;83.12
61528;BME280;47395;42.032;-8.634;2023-04-01T07:35:29;101844.63;;;14.60;82.99
61528;BME280;47395;42.032;-8.634;2023-04-01T07:38:09;101852.13;;;14.69;82.43
61528;BME280;47395;42.032;-8.634;2023-04-01T07:40:42;101854.38;;;14.79;81.69
61528;BME280;47395;42.032;-8.634;2023-04-01T07:47:44;101853.91;;;14.88;81.49
61528;BME280;47395;42.032;-8.634;2023-04-01T07:49:30;101860.78;;;14.92;81.45
61528;BME280;47395;42.032;-8.634;2023-04-01T07:51:40;101862.97;;;14.84;80.91
61528;BME280;47395;42.032;-8.634;2023-04-01T07:56:08;101864.78;;;14.64;81.44
61528;BME280;47395;42.032;-8.634;2023-04-01T07:58:43;101862.13;;;14.64;81.73
61528;BME280;47395;42.032;-8.634;2023-04-01T08:01:31;101868.81;;;14.71;81.86
61528;BME280;47395;42.032;-8.634;2023-04-01T08:03:48;101866.16;;;14.71;81.80
61528;BME280;47395;42.032;-8.634;2023-04-01T08:06:19;101868.97;;;14.68;81.28
61528;BME280;47395;42.032;-8.634;2023-04-01T08:17:02;101877.34;;;14.97;80.88
61528;BME280;47395;42.032;-8.634;2023-04-01T08:21:32;101873.78;;;15.16;80.14
61528;BME280;47395;42.032;-8.634;2023-04-01T08:23:40;101874.66;;;15.34;79.47
61528;BME280;47395;42.032;-8.634;2023-04-01T08:28:31;101874.88;;;15.30;79.54
61528;BME280;47395;42.032;-8.634;2023-04-01T08:30:39;101881.69;;;15.35;79.23
61528;BME280;47395;42.032;-8.634;2023-04-01T08:32:55;101885.25;;;15.17;79.65
61528;BME280;47395;42.032;-8.634;2023-04-01T08:35:27;101885.34;;;15.33;79.52
61528;BME280;47395;42.032;-8.634;2023-04-01T08:37:32;101881.75;;;15.34;79.27
61528;BME280;47395;42.032;-8.634;2023-04-01T08:39:48;101878.41;;;15.48;79.06
61528;BME280;47395;42.032;-8.634;2023-04-01T08:42:31;101884.25;;;15.55;78.88
61528;BME280;47395;42.032;-8.634;2023-04-01T08:45:20;101883.03;;;15.62;78.77
61528;BME280;47395;42.032;-8.634;2023-04-01T08:48:04;101879.69;;;15.74;78.36
61528;BME280;47395;42.032;-8.634;2023-04-01T08:53:07;101876.47;;;16.03;77.72
61528;BME280;47395;42.032;-8.634;2023-04-01T08:55:43;101882.16;;;16.13;76.52
61528;BME280;47395;42.032;-8.634;2023-04-01T08:58:25;101875.44;;;16.55;75.58
61528;BME280;47395;42.032;-8.634;2023-04-01T09:00:52;101878.56;;;16.94;73.92
61528;BME280;47395;42.032;-8.634;2023-04-01T09:06:21;101877.97;;;18.39;68.35
61528;BME280;47395;42.032;-8.634;2023-04-01T09:21:31;101888.91;;;19.19;63.89
61528;BME280;47395;42.032;-8.634;2023-04-01T09:23:10;101888.38;;;18.99;65.14
61528;BME280;47395;42.032;-8.634;2023-04-01T09:25:41;101891.44;;;19.08;65.15
61528;BME280;47395;42.032;-8.634;2023-04-01T09:28:27;101895.19;;;18.90;65.21
61528;BME280;47395;42.032;-8.634;2023-04-01T09:30:33;101891.28;;;18.54;65.48
61528;BME280;47395;42.032;-8.634;2023-04-01T09:38:22;101885.91;;;18.12;68.52
61528;BME280;47395;42.032;-8.634;2023-04-01T09:43:44;101886.91;;;18.53;66.86
61528;BME280;47395;42.032;-8.634;2023-04-01T09:46:18;101875.47;;;18.78;66.04
61528;BME280;47395;42.032;-8.634;2023-04-01T09:49:00;101878.25;;;19.04;65.46
61528;BME280;47395;42.032;-8.634;2023-04-01T09:57:06;101869.41;;;20.09;62.95
61528;BME280;47395;42.032;-8.634;2023-04-01T10:07:43;101860.66;;;20.32;60.06
61528;BME280;47395;42.032;-8.634;2023-04-01T10:13:20;101862.31;;;20.59;59.55
61528;BME280;47395;42.032;-8.634;2023-04-01T10:18:33;101864.34;;;19.40;60.73
61528;BME280;47395;42.032;-8.634;2023-04-01T10:21:13;101863.75;;;20.01;59.85
61528;BME280;47395;42.032;-8.634;2023-04-01T10:26:05;101864.38;;;19.66;62.10
61528;BME280;47395;42.032;-8.634;2023-04-01T10:31:29;101855.78;;;20.88;58.93
61528;BME280;47395;42.032;-8.634;2023-04-01T10:36:55;101854.38;;;21.65;55.69
61528;BME280;47395;42.032;-8.634;2023-04-01T10:47:25;101853.09;;;21.82;55.60
61528;BME280;47395;42.032;-8.634;2023-04-01T10:58:33;101846.16;;;23.45;49.22
61528;BME280;47395;42.032;-8.634;2023-04-01T11:19:27;101853.53;;;22.33;54.78
61528;BME280;47395;42.032;-8.634;2023-04-01T11:29:39;101867.81;;;22.34;52.73
61528;BME280;47395;42.032;-8.634;2023-04-01T11:32:52;101859.97;;;22.53;52.48
61528;BME280;47395;42.032;-8.634;2023-04-01T11:38:24;101854.38;;;22.56;53.13
61528;BME280;47395;42.032;-8.634;2023-04-01T11:40:42;101851.09;;;23.40;52.26
61528;BME280;47395;42.032;-8.634;2023-04-01T11:44:03;101851.91;;;23.93;50.71
61528;BME280;47395;42.032;-8.634;2023-04-01T11:46:12;101857.06;;;22.89;50.34
61528;BME280;47395;42.032;-8.634;2023-04-01T11:48:37;101861.72;;;22.32;50.42
61528;BME280;47395;42.032;-8.634;2023-04-01T12:05:08;101841.66;;;22.03;54.86
61528;BME280;47395;42.032;-8.634;2023-04-01T12:10:12;101835.97;;;23.39;49.72
61528;BME280;47395;42.032;-8.634;2023-04-01T12:12:39;101828.44;;;24.05;48.44
61528;BME280;47395;42.032;-8.634;2023-04-01T12:15:14;101828.91;;;23.79;48.23
61528;BME280;47395;42.032;-8.634;2023-04-01T12:17:43;101813.34;;;24.23;46.62
61528;BME280;47395;42.032;-8.634;2023-04-01T12:20:22;101816.91;;;25.13;44.90
61528;BME280;47395;42.032;-8.634;2023-04-01T12:24:57;101821.19;;;26.48;42.00
61528;BME280;47395;42.032;-8.634;2023-04-01T12:27:41;101825.94;;;25.41;43.83
61528;BME280;47395;42.032;-8.634;2023-04-01T12:35:23;101838.50;;;24.63;46.05
61528;BME280;47395;42.032;-8.634;2023-04-01T12:37:47;101834.06;;;24.43;46.84
61528;BME280;47395;42.032;-8.634;2023-04-01T12:40:24;101827.09;;;24.30;47.21
61528;BME280;47395;42.032;-8.634;2023-04-01T12:44:52;101840.41;;;23.50;47.06
61528;BME280;47395;42.032;-8.634;2023-04-01T12:47:29;101846.53;;;23.62;46.29
61528;BME280;47395;42.032;-8.634;2023-04-01T12:52:58;101852.94;;;24.02;46.46
61528;BME280;47395;42.032;-8.634;2023-04-01T12:55:12;101863.16;;;22.91;48.59
61528;BME280;47395;42.032;-8.634;2023-04-01T13:00:23;101861.09;;;21.59;52.34
61528;BME280;47395;42.032;-8.634;2023-04-01T13:02:36;101862.78;;;21.37;53.23
61528;BME280;47395;42.032;-8.634;2023-04-01T13:06:26;101869.38;;;20.84;55.63
61528;BME280;47395;42.032;-8.634;2023-04-01T13:07:48;101864.16;;;20.08;58.20
61528;BME280;47395;42.032;-8.634;2023-04-01T13:10:21;101861.13;;;19.22;63.55
61528;BME280;47395;42.032;-8.634;2023-04-01T13:18:28;101866.13;;;18.86;65.35
61528;BME280;47395;42.032;-8.634;2023-04-01T13:20:41;101867.94;;;18.58;66.43
61528;BME280;47395;42.032;-8.634;2023-04-01T13:22:56;101881.69;;;18.37;66.56
61528;BME280;47395;42.032;-8.634;2023-04-01T13:25:35;101886.94;;;18.38;66.39
61528;BME280;47395;42.032;-8.634;2023-04-01T13:27:44;101888.06;;;18.34;66.52
61528;BME280;47395;42.032;-8.634;2023-04-01T13:30:22;101893.09;;;18.39;66.82
61528;BME280;47395;42.032;-8.634;2023-04-01T13:38:28;101877.00;;;18.55;67.34
61528;BME280;47395;42.032;-8.634;2023-04-01T13:43:38;101870.16;;;19.06;65.55
61528;BME280;47395;42.032;-8.634;2023-04-01T13:56:08;101857.78;;;21.44;56.37
61528;BME280;47395;42.032;-8.634;2023-04-01T13:58:58;101855.66;;;21.84;54.74
61528;BME280;47395;42.032;-8.634;2023-04-01T14:01:13;101851.88;;;22.09;54.89
61528;BME280;47395;42.032;-8.634;2023-04-01T14:03:30;101854.38;;;21.54;53.48
61528;BME280;47395;42.032;-8.634;2023-04-01T14:05:39;101855.06;;;21.91;53.53
61528;BME280;47395;42.032;-8.634;2023-04-01T14:08:20;101852.56;;;21.65;53.83
61528;BME280;47395;42.032;-8.634;2023-04-01T14:15:55;101864.81;;;20.73;55.70
61528;BME280;47395;42.032;-8.634;2023-04-01T14:21:13;101857.78;;;21.56;55.29
61528;BME280;47395;42.032;-8.634;2023-04-01T14:29:02;101849.88;;;21.07;54.66
61528;BME280;47395;42.032;-8.634;2023-04-01T14:37:40;101852.94;;;20.03;56.44
61528;BME280;47395;42.032;-8.634;2023-04-01T14:45:15;101845.84;;;20.52;55.40
61528;BME280;47395;42.032;-8.634;2023-04-01T14:49:41;101834.78;;;22.22;51.72
61528;BME280;47395;42.032;-8.634;2023-04-01T14:51:43;101831.75;;;22.03;52.31
61528;BME280;47395;42.032;-8.634;2023-04-01T14:54:10;101829.31;;;21.66;52.34
61528;BME280;47395;42.032;-8.634;2023-04-01T14:56:13;101829.66;;;22.19;50.82
61528;BME280;47395;42.032;-8.634;2023-04-01T14:58:47;101820.41;;;22.00;50.90
61528;BME280;47395;42.032;-8.634;2023-04-01T15:01:25;101828.09;;;22.04;51.25
61528;BME280;47395;42.032;-8.634;2023-04-01T15:03:30;101816.22;;;22.95;50.59
61528;BME280;47395;42.032;-8.634;2023-04-01T15:08:34;101812.91;;;23.46;48.03
61528;BME280;47395;42.032;-8.634;2023-04-01T15:13:13;101811.00;;;23.99;47.93
61528;BME280;47395;42.032;-8.634;2023-04-01T15:18:02;101808.22;;;21.96;52.68
61528;BME280;47395;42.032;-8.634;2023-04-01T15:21:13;101803.22;;;21.57;53.14
61528;BME280;47395;42.032;-8.634;2023-04-01T15:23:06;101801.63;;;20.95;54.71
61528;BME280;47395;42.032;-8.634;2023-04-01T15:27:37;101791.22;;;20.30;55.77
61528;BME280;47395;42.032;-8.634;2023-04-01T15:32:50;101805.63;;;20.41;56.22
61528;BME280;47395;42.032;-8.634;2023-04-01T15:37:28;101800.56;;;20.49;55.08
61528;BME280;47395;42.032;-8.634;2023-04-01T15:40:11;101802.84;;;20.67;54.75
61528;BME280;47395;42.032;-8.634;2023-04-01T15:42:28;101796.28;;;20.71;53.81
61528;BME280;47395;42.032;-8.634;2023-04-01T15:44:58;101798.97;;;20.95;54.03
61528;BME280;47395;42.032;-8.634;2023-04-01T15:47:31;101795.06;;;20.99;54.16
61528;BME280;47395;42.032;-8.634;2023-04-01T15:49:38;101793.66;;;21.18;53.17